Time,TemperatureF,DewpointF,PressureIn,WindDirection,WindDirectionDegrees,WindSpeedMPH,WindSpeedGustMPH,Humidity,HourlyPrecipIn,Conditions,Clouds,dailyrainin,SoftwareType,DateUTC
2013-12-18 00:02:00,60.7,51.7,30.16,WNW,293,5.8,9.4,72,0.00,,,0.00,WUHU216HW,2013-12-17 21:02:00,
2013-12-18 00:07:00,60.5,51.5,30.15,WNW,293,5.8,8.7,72,0.00,,,0.00,WUHU216HW,2013-12-17 21:07:00,
2013-12-18 00:12:00,60.5,51.8,30.16,WNW,293,5.4,8.5,73,0.00,,,0.00,WUHU216HW,2013-12-17 21:12:00,
2013-12-18 00:17:00,60.5,51.8,30.16,West,270,8.1,8.5,73,0.00,,,0.00,WUHU216HW,2013-12-17 21:17:00,
2013-12-18 00:22:00,60.5,51.8,30.15,NW,315,5.4,9.2,73,0.00,,,0.00,WUHU216HW,2013-12-17 21:22:00,
2013-12-18 00:27:00,60.3,51.7,30.15,WNW,293,7.8,9.2,73,0.00,,,0.00,WUHU216HW,2013-12-17 21:27:00,
2013-12-18 00:32:00,60.5,51.8,30.15,WNW,293,6.0,10.1,73,0.00,,,0.00,WUHU216HW,2013-12-17 21:32:00,
2013-12-18 00:37:00,60.3,51.7,30.15,West,270,9.4,10.1,73,0.00,,,0.00,WUHU216HW,2013-12-17 21:37:00,
2013-12-18 00:42:00,60.3,51.7,30.15,NW,315,8.3,10.7,73,0.00,,,0.00,WUHU216HW,2013-12-17 21:42:00,
2013-12-18 00:47:00,60.3,51.7,30.15,NW,315,8.5,10.7,73,0.00,,,0.00,WUHU216HW,2013-12-17 21:47:00,
2013-12-18 00:52:00,60.1,51.5,30.15,NW,315,4.0,9.2,73,0.00,,,0.00,WUHU216HW,2013-12-17 21:52:00,
2013-12-18 00:57:00,60.1,51.5,30.15,WNW,293,6.3,8.5,73,0.00,,,0.00,WUHU216HW,2013-12-17 21:57:00,
2013-12-18 01:02:00,60.1,51.5,30.15,West,270,9.2,9.8,73,0.00,,,0.00,WUHU216HW,2013-12-17 22:02:00,
2013-12-18 01:07:00,60.1,51.5,30.15,WNW,293,7.6,9.8,73,0.00,,,0.00,WUHU216HW,2013-12-17 22:07:00,
2013-12-18 01:12:00,60.1,51.5,30.15,WNW,293,8.3,9.2,73,0.00,,,0.00,WUHU216HW,2013-12-17 22:12:00,
2013-12-18 01:16:00,59.9,51.3,30.15,NNW,338,5.4,8.9,73,0.00,,,0.00,WUHU216HW,2013-12-17 22:16:00,
2013-12-18 01:21:00,59.9,51.3,30.15,WNW,293,7.6,10.7,73,0.00,,,0.00,WUHU216HW,2013-12-17 22:21:00,
2013-12-18 01:26:00,59.9,51.3,30.15,NW,315,8.7,11.0,73,0.00,,,0.00,WUHU216HW,2013-12-17 22:26:00,
2013-12-18 01:31:00,59.9,51.3,30.15,West,270,8.1,11.0,73,0.00,,,0.00,WUHU216HW,2013-12-17 22:31:00,
2013-12-18 01:36:00,59.8,51.1,30.15,West,270,6.3,10.1,73,0.00,,,0.00,WUHU216HW,2013-12-17 22:36:00,
2013-12-18 01:41:00,59.8,51.1,30.15,WNW,293,8.9,9.2,73,0.00,,,0.00,WUHU216HW,2013-12-17 22:41:00,
2013-12-18 01:46:00,59.6,50.9,30.15,NNW,338,6.9,10.1,73,0.00,,,0.00,WUHU216HW,2013-12-17 22:46:00,
2013-12-18 01:51:00,59.4,50.8,30.15,WNW,293,8.3,10.1,73,0.00,,,0.00,WUHU216HW,2013-12-17 22:51:00,
2013-12-18 01:56:00,59.4,50.8,30.15,WNW,293,8.9,10.3,73,0.00,,,0.00,WUHU216HW,2013-12-17 22:56:00,
2013-12-18 02:01:00,59.4,50.8,30.14,NW,315,8.3,10.3,73,0.00,,,0.00,WUHU216HW,2013-12-17 23:01:00,
2013-12-18 02:06:00,59.2,50.6,30.15,NNW,338,6.9,9.8,73,0.00,,,0.00,WUHU216HW,2013-12-17 23:06:00,
2013-12-18 02:11:00,59.2,50.6,30.15,WNW,293,5.4,10.5,73,0.00,,,0.00,WUHU216HW,2013-12-17 23:11:00,
2013-12-18 02:16:00,59.2,50.6,30.14,WNW,293,6.3,10.5,73,0.00,,,0.00,WUHU216HW,2013-12-17 23:16:00,
2013-12-18 02:21:00,59.2,50.6,30.14,WNW,293,7.2,9.4,73,0.00,,,0.00,WUHU216HW,2013-12-17 23:21:00,
2013-12-18 02:26:00,59.0,50.4,30.14,WNW,293,5.4,9.2,73,0.00,,,0.00,WUHU216HW,2013-12-17 23:26:00,
2013-12-18 02:31:00,59.0,50.4,30.14,WNW,293,6.9,8.9,73,0.00,,,0.00,WUHU216HW,2013-12-17 23:31:00,
2013-12-18 02:36:00,59.0,50.4,30.14,West,270,7.4,8.5,73,0.00,,,0.00,WUHU216HW,2013-12-17 23:36:00,
2013-12-18 02:41:00,58.9,50.6,30.13,NNW,338,6.7,9.4,74,0.00,,,0.00,WUHU216HW,2013-12-17 23:41:00,
2013-12-18 02:46:00,58.9,50.2,30.14,West,270,6.0,9.4,73,0.00,,,0.00,WUHU216HW,2013-12-17 23:46:00,
2013-12-18 02:51:00,58.9,50.6,30.13,NW,315,5.4,9.2,74,0.00,,,0.00,WUHU216HW,2013-12-17 23:51:00,
2013-12-18 02:56:00,58.9,50.6,30.13,WNW,293,6.5,9.2,74,0.00,,,0.00,WUHU216HW,2013-12-17 23:56:00,
2013-12-18 03:01:00,58.7,50.4,30.13,West,270,6.3,10.5,74,0.00,,,0.00,WUHU216HW,2013-12-18 00:01:00,
2013-12-18 03:06:00,58.7,50.4,30.13,WNW,293,8.5,10.5,74,0.00,,,0.00,WUHU216HW,2013-12-18 00:06:00,
2013-12-18 03:11:00,58.7,50.4,30.13,West,270,6.5,8.9,74,0.00,,,0.00,WUHU216HW,2013-12-18 00:11:00,
2013-12-18 03:16:00,58.7,50.4,30.13,WNW,293,7.8,8.9,74,0.00,,,0.00,WUHU216HW,2013-12-18 00:16:00,
2013-12-18 03:21:00,58.7,50.8,30.13,WNW,293,9.4,11.2,75,0.00,,,0.00,WUHU216HW,2013-12-18 00:21:00,
2013-12-18 03:26:00,58.7,50.8,30.13,NW,315,7.4,11.2,75,0.00,,,0.00,WUHU216HW,2013-12-18 00:26:00,
2013-12-18 03:31:00,58.7,50.8,30.13,NW,315,6.9,10.3,75,0.00,,,0.00,WUHU216HW,2013-12-18 00:31:00,
2013-12-18 03:36:00,58.7,50.8,30.13,NW,315,6.9,10.1,75,0.00,,,0.00,WUHU216HW,2013-12-18 00:36:00,
2013-12-18 03:41:00,58.7,50.8,30.13,WNW,293,7.6,10.1,75,0.00,,,0.00,WUHU216HW,2013-12-18 00:41:00,
2013-12-18 03:46:00,58.7,50.8,30.13,NW,315,7.8,8.9,75,0.00,,,0.00,WUHU216HW,2013-12-18 00:46:00,
2013-12-18 03:51:00,58.7,51.1,30.13,NW,315,8.5,9.8,76,0.00,,,0.00,WUHU216HW,2013-12-18 00:51:00,
2013-12-18 03:56:00,58.5,50.9,30.13,West,270,7.2,9.8,76,0.00,,,0.00,WUHU216HW,2013-12-18 00:56:00,
2013-12-18 04:01:00,58.5,50.9,30.13,NW,315,7.2,8.5,76,0.00,,,0.00,WUHU216HW,2013-12-18 01:01:00,
2013-12-18 04:06:00,58.5,50.9,30.13,NW,315,10.3,10.3,76,0.00,,,0.00,WUHU216HW,2013-12-18 01:06:00,
2013-12-18 04:11:00,58.5,50.9,30.13,WNW,293,7.8,10.3,76,0.00,,,0.00,WUHU216HW,2013-12-18 01:11:00,
2013-12-18 04:16:00,58.5,50.9,30.13,NW,315,7.6,10.3,76,0.00,,,0.00,WUHU216HW,2013-12-18 01:16:00,
2013-12-18 04:21:00,58.5,50.9,30.13,WNW,293,6.3,7.8,76,0.00,,,0.00,WUHU216HW,2013-12-18 01:21:00,
2013-12-18 04:26:00,58.3,50.8,30.13,WNW,293,6.5,7.6,76,0.00,,,0.00,WUHU216HW,2013-12-18 01:26:00,
2013-12-18 04:31:00,58.5,50.9,30.13,NW,315,5.1,7.6,76,0.00,,,0.00,WUHU216HW,2013-12-18 01:31:00,
2013-12-18 04:36:00,58.3,50.8,30.13,WNW,293,5.8,8.7,76,0.00,,,0.00,WUHU216HW,2013-12-18 01:36:00,
2013-12-18 04:41:00,58.3,50.8,30.13,WNW,293,7.2,8.7,76,0.00,,,0.00,WUHU216HW,2013-12-18 01:41:00,
2013-12-18 04:46:00,58.3,50.8,30.13,WNW,293,6.9,8.7,76,0.00,,,0.00,WUHU216HW,2013-12-18 01:46:00,
2013-12-18 04:51:00,58.3,50.8,30.13,WNW,293,7.6,8.3,76,0.00,,,0.00,WUHU216HW,2013-12-18 01:51:00,
2013-12-18 04:56:00,58.3,50.8,30.13,NW,315,6.3,9.6,76,0.00,,,0.00,WUHU216HW,2013-12-18 01:56:00,
2013-12-18 05:01:00,58.3,50.8,30.13,WNW,293,5.6,9.6,76,0.00,,,0.00,WUHU216HW,2013-12-18 02:01:00,
2013-12-18 05:06:00,58.3,50.8,30.13,NW,315,10.1,10.1,76,0.00,,,0.00,WUHU216HW,2013-12-18 02:06:00,
2013-12-18 05:11:00,58.3,50.8,30.13,NW,315,9.8,11.0,76,0.00,,,0.00,WUHU216HW,2013-12-18 02:11:00,
2013-12-18 05:16:00,58.3,50.8,30.14,NNW,338,6.3,11.0,76,0.00,,,0.00,WUHU216HW,2013-12-18 02:16:00,
2013-12-18 05:21:00,58.3,50.8,30.14,West,270,6.9,10.1,76,0.00,,,0.00,WUHU216HW,2013-12-18 02:21:00,
2013-12-18 05:26:00,58.1,50.6,30.14,NW,315,5.8,10.1,76,0.00,,,0.00,WUHU216HW,2013-12-18 02:26:00,
2013-12-18 05:31:00,58.1,50.6,30.14,West,270,5.8,7.8,76,0.00,,,0.00,WUHU216HW,2013-12-18 02:31:00,
2013-12-18 05:36:00,58.1,50.6,30.14,NW,315,6.5,9.8,76,0.00,,,0.00,WUHU216HW,2013-12-18 02:36:00,
2013-12-18 05:41:00,58.1,50.6,30.14,WNW,293,7.2,9.8,76,0.00,,,0.00,WUHU216HW,2013-12-18 02:41:00,
2013-12-18 05:46:00,58.1,50.6,30.15,NW,315,6.3,8.5,76,0.00,,,0.00,WUHU216HW,2013-12-18 02:46:00,
2013-12-18 05:51:00,58.0,50.4,30.15,NW,315,4.9,8.7,76,0.00,,,0.00,WUHU216HW,2013-12-18 02:51:00,
2013-12-18 05:56:00,58.0,50.4,30.15,WNW,293,7.8,8.9,76,0.00,,,0.00,WUHU216HW,2013-12-18 02:56:00,
2013-12-18 06:01:00,58.0,50.4,30.15,WNW,293,6.5,8.9,76,0.00,,,0.00,WUHU216HW,2013-12-18 03:01:00,
2013-12-18 06:06:00,58.0,50.4,30.15,NW,315,6.9,9.2,76,0.00,,,0.00,WUHU216HW,2013-12-18 03:06:00,
2013-12-18 06:11:00,58.0,50.4,30.15,NNW,338,6.0,9.2,76,0.00,,,0.00,WUHU216HW,2013-12-18 03:11:00,
2013-12-18 06:16:00,58.0,50.4,30.15,West,270,6.3,9.6,76,0.00,,,0.00,WUHU216HW,2013-12-18 03:16:00,
2013-12-18 06:21:00,58.0,50.4,30.15,NW,315,8.7,9.6,76,0.00,,,0.00,WUHU216HW,2013-12-18 03:21:00,
2013-12-18 06:26:00,58.0,50.4,30.15,NW,315,6.5,8.7,76,0.00,,,0.00,WUHU216HW,2013-12-18 03:26:00,
2013-12-18 06:31:00,58.1,50.6,30.16,NW,315,6.3,8.7,76,0.00,,,0.00,WUHU216HW,2013-12-18 03:31:00,
2013-12-18 06:36:00,58.1,50.6,30.16,WNW,293,6.0,8.5,76,0.00,,,0.00,WUHU216HW,2013-12-18 03:36:00,
2013-12-18 06:41:00,58.1,50.6,30.16,NW,315,6.3,8.3,76,0.00,,,0.00,WUHU216HW,2013-12-18 03:41:00,
2013-12-18 06:46:00,58.3,50.8,30.16,West,270,6.5,9.2,76,0.00,,,0.00,WUHU216HW,2013-12-18 03:46:00,
2013-12-18 06:51:00,58.3,50.8,30.16,NW,315,4.7,9.2,76,0.00,,,0.00,WUHU216HW,2013-12-18 03:51:00,
2013-12-18 06:56:00,58.3,50.8,30.16,West,270,5.6,8.5,76,0.00,,,0.00,WUHU216HW,2013-12-18 03:56:00,
2013-12-18 07:01:00,58.5,50.9,30.17,WNW,293,8.7,9.4,76,0.00,,,0.00,WUHU216HW,2013-12-18 04:01:00,
2013-12-18 07:06:00,58.7,50.8,30.17,WNW,293,7.2,9.4,75,0.00,,,0.00,WUHU216HW,2013-12-18 04:06:00,
2013-12-18 07:11:00,58.7,50.8,30.17,WNW,293,7.6,9.2,75,0.00,,,0.00,WUHU216HW,2013-12-18 04:11:00,
2013-12-18 07:16:00,58.7,50.8,30.17,WNW,293,7.8,10.3,75,0.00,,,0.00,WUHU216HW,2013-12-18 04:16:00,
2013-12-18 07:21:00,58.9,50.9,30.17,NW,315,8.5,10.3,75,0.00,,,0.00,WUHU216HW,2013-12-18 04:21:00,
2013-12-18 07:26:00,59.0,50.8,30.17,WNW,293,8.1,9.8,74,0.00,,,0.00,WUHU216HW,2013-12-18 04:26:00,
2013-12-18 07:31:00,59.2,50.9,30.17,NNW,338,6.0,9.8,74,0.00,,,0.00,WUHU216HW,2013-12-18 04:31:00,
2013-12-18 07:36:00,59.4,50.8,30.17,WNW,293,11.0,11.0,73,0.00,,,0.00,WUHU216HW,2013-12-18 04:36:00,
2013-12-18 07:41:00,59.6,50.9,30.18,West,270,11.4,11.4,73,0.00,,,0.00,WUHU216HW,2013-12-18 04:41:00,
2013-12-18 07:46:00,59.8,51.1,30.18,NW,315,10.5,13.2,73,0.00,,,0.00,WUHU216HW,2013-12-18 04:46:00,
2013-12-18 07:51:00,59.9,51.3,30.17,WNW,293,7.4,13.2,73,0.00,,,0.00,WUHU216HW,2013-12-18 04:51:00,
2013-12-18 07:56:00,60.1,51.1,30.18,West,270,8.3,12.8,72,0.00,,,0.00,WUHU216HW,2013-12-18 04:56:00,
2013-12-18 08:01:00,60.1,51.1,30.18,West,270,6.0,11.0,72,0.00,,,0.00,WUHU216HW,2013-12-18 05:01:00,
2013-12-18 08:06:00,60.5,51.5,30.18,WNW,293,7.6,10.1,72,0.00,,,0.00,WUHU216HW,2013-12-18 05:06:00,
2013-12-18 08:11:00,60.7,51.3,30.18,WNW,293,6.7,10.5,71,0.00,,,0.00,WUHU216HW,2013-12-18 05:11:00,
2013-12-18 08:16:00,60.8,51.5,30.19,WNW,293,10.7,11.0,71,0.00,,,0.00,WUHU216HW,2013-12-18 05:16:00,
2013-12-18 08:21:00,61.0,51.3,30.19,NNW,338,7.6,11.6,70,0.00,,,0.00,WUHU216HW,2013-12-18 05:21:00,
2013-12-18 08:26:00,61.4,51.6,30.19,NNW,338,8.1,11.6,70,0.00,,,0.00,WUHU216HW,2013-12-18 05:26:00,
2013-12-18 08:31:00,61.7,51.9,30.19,WNW,293,9.8,11.4,70,0.00,,,0.00,WUHU216HW,2013-12-18 05:31:00,
2013-12-18 08:36:00,61.9,51.7,30.19,NW,315,9.6,12.1,69,0.00,,,0.00,WUHU216HW,2013-12-18 05:36:00,
2013-12-18 08:41:00,62.1,52.3,30.19,NW,315,6.3,12.1,70,0.00,,,0.00,WUHU216HW,2013-12-18 05:41:00,
2013-12-18 08:46:00,62.3,52.4,30.19,NW,315,6.0,11.2,70,0.00,,,0.00,WUHU216HW,2013-12-18 05:46:00,
2013-12-18 08:51:00,62.6,52.3,30.19,NW,315,9.4,11.2,69,0.00,,,0.00,WUHU216HW,2013-12-18 05:51:00,
2013-12-18 08:56:00,62.6,52.3,30.19,NNW,338,6.9,10.5,69,0.00,,,0.00,WUHU216HW,2013-12-18 05:56:00,
2013-12-18 09:01:00,63.0,52.3,30.19,WNW,293,6.7,10.5,68,0.00,,,0.00,WUHU216HW,2013-12-18 06:01:00,
2013-12-18 09:06:00,63.4,52.7,30.19,WNW,293,8.3,9.8,68,0.00,,,0.00,WUHU216HW,2013-12-18 06:06:00,
2013-12-18 09:11:00,63.5,52.8,30.19,West,270,5.8,12.3,68,0.00,,,0.00,WUHU216HW,2013-12-18 06:11:00,
2013-12-18 09:16:00,63.7,52.6,30.19,NW,315,6.3,12.3,67,0.00,,,0.00,WUHU216HW,2013-12-18 06:16:00,
2013-12-18 09:21:00,63.9,52.8,30.19,WNW,293,8.5,9.8,67,0.00,,,0.00,WUHU216HW,2013-12-18 06:21:00,
2013-12-18 09:26:00,64.1,52.5,30.18,WSW,248,5.6,11.4,66,0.00,,,0.00,WUHU216HW,2013-12-18 06:26:00,
2013-12-18 09:31:00,64.3,52.7,30.18,West,270,9.8,11.4,66,0.00,,,0.00,WUHU216HW,2013-12-18 06:31:00,
2013-12-18 09:36:00,64.4,52.8,30.18,WNW,293,4.7,12.1,66,0.00,,,0.00,WUHU216HW,2013-12-18 06:36:00,
2013-12-18 09:41:00,64.8,52.8,30.18,NW,315,9.2,12.1,65,0.00,,,0.00,WUHU216HW,2013-12-18 06:41:00,
2013-12-18 09:46:00,65.0,52.9,30.18,NNW,338,9.2,11.2,65,0.00,,,0.00,WUHU216HW,2013-12-18 06:46:00,
2013-12-18 09:51:00,65.2,53.1,30.18,West,270,8.3,11.2,65,0.00,,,0.00,WUHU216HW,2013-12-18 06:51:00,
2013-12-18 09:56:00,65.5,53.0,30.18,WNW,293,4.9,11.4,64,0.00,,,0.00,WUHU216HW,2013-12-18 06:56:00,
2013-12-18 10:01:00,65.9,53.4,30.18,NNW,338,7.2,11.4,64,0.00,,,0.00,WUHU216HW,2013-12-18 07:01:00,
2013-12-18 10:06:00,66.1,53.1,30.17,West,270,9.2,12.1,63,0.00,,,0.00,WUHU216HW,2013-12-18 07:06:00,
2013-12-18 10:11:00,66.1,53.1,30.17,NW,315,8.5,12.1,63,0.00,,,0.00,WUHU216HW,2013-12-18 07:11:00,
2013-12-18 10:16:00,66.4,53.5,30.17,NW,315,8.1,11.4,63,0.00,,,0.00,WUHU216HW,2013-12-18 07:16:00,
2013-12-18 10:21:00,66.6,53.2,30.17,West,270,8.5,12.8,62,0.00,,,0.00,WUHU216HW,2013-12-18 07:21:00,
2013-12-18 10:26:00,66.8,53.4,30.17,West,270,9.8,12.8,62,0.00,,,0.00,WUHU216HW,2013-12-18 07:26:00,
2013-12-18 10:31:00,67.0,53.6,30.17,West,270,8.7,11.6,62,0.00,,,0.00,WUHU216HW,2013-12-18 07:31:00,
2013-12-18 10:36:00,67.1,53.3,30.17,WNW,293,7.8,11.4,61,0.00,,,0.00,WUHU216HW,2013-12-18 07:36:00,
2013-12-18 10:41:00,67.5,53.6,30.17,NNW,338,4.7,11.4,61,0.00,,,0.00,WUHU216HW,2013-12-18 07:41:00,
2013-12-18 10:46:00,67.7,53.3,30.16,NNW,338,9.8,10.7,60,0.00,,,0.00,WUHU216HW,2013-12-18 07:46:00,
2013-12-18 10:51:00,67.7,53.3,30.16,WNW,293,8.5,10.7,60,0.00,,,0.00,WUHU216HW,2013-12-18 07:51:00,
2013-12-18 10:56:00,68.0,53.2,30.16,NNW,338,5.1,12.5,59,0.00,,,0.00,WUHU216HW,2013-12-18 07:56:00,
2013-12-18 11:01:00,68.0,53.2,30.15,WNW,293,8.1,12.5,59,0.00,,,0.00,WUHU216HW,2013-12-18 08:01:00,
2013-12-18 11:06:00,68.4,53.0,30.15,NW,315,12.5,13.9,58,0.00,,,0.00,WUHU216HW,2013-12-18 08:06:00,
2013-12-18 11:11:00,68.4,53.6,30.15,West,270,7.4,13.9,59,0.00,,,0.00,WUHU216HW,2013-12-18 08:11:00,
2013-12-18 11:16:00,68.8,53.4,30.15,WNW,293,7.2,10.7,58,0.00,,,0.00,WUHU216HW,2013-12-18 08:16:00,
2013-12-18 11:21:00,68.8,53.4,30.14,West,270,9.2,10.1,58,0.00,,,0.00,WUHU216HW,2013-12-18 08:21:00,
2013-12-18 11:26:00,68.8,53.4,30.14,NW,315,6.7,9.8,58,0.00,,,0.00,WUHU216HW,2013-12-18 08:26:00,
2013-12-18 11:31:00,69.1,53.2,30.14,NNW,338,10.3,10.3,57,0.00,,,0.00,WUHU216HW,2013-12-18 08:31:00,
2013-12-18 11:36:00,69.5,53.1,30.14,North,0,3.1,10.3,56,0.00,,,0.00,WUHU216HW,2013-12-18 08:36:00,
2013-12-18 11:41:00,69.5,53.1,30.13,NW,315,8.9,11.2,56,0.00,,,0.00,WUHU216HW,2013-12-18 08:41:00,
2013-12-18 11:46:00,69.5,52.6,30.13,NNW,338,6.5,11.2,55,0.00,,,0.00,WUHU216HW,2013-12-18 08:46:00,
2013-12-18 11:51:00,69.7,52.7,30.13,NW,315,10.3,10.5,55,0.00,,,0.00,WUHU216HW,2013-12-18 08:51:00,
2013-12-18 11:56:00,69.8,52.9,30.12,NW,315,9.2,11.4,55,0.00,,,0.00,WUHU216HW,2013-12-18 08:56:00,
2013-12-18 12:01:00,69.8,52.9,30.12,NW,315,7.2,11.4,55,0.00,,,0.00,WUHU216HW,2013-12-18 09:01:00,
2013-12-18 12:06:00,70.0,53.6,30.12,NW,315,7.4,11.4,56,0.00,,,0.00,WUHU216HW,2013-12-18 09:06:00,
2013-12-18 12:11:00,70.2,53.3,30.11,NW,315,8.5,11.4,55,0.00,,,0.00,WUHU216HW,2013-12-18 09:11:00,
2013-12-18 12:16:00,70.4,53.4,30.11,NW,315,6.0,10.5,55,0.00,,,0.00,WUHU216HW,2013-12-18 09:16:00,
2013-12-18 12:21:00,70.2,53.3,30.11,NW,315,8.7,10.5,55,0.00,,,0.00,WUHU216HW,2013-12-18 09:21:00,
2013-12-18 12:26:00,70.4,53.4,30.11,West,270,7.6,10.5,55,0.00,,,0.00,WUHU216HW,2013-12-18 09:26:00,
2013-12-18 12:31:00,70.7,53.7,30.10,WNW,293,5.4,10.5,55,0.00,,,0.00,WUHU216HW,2013-12-18 09:31:00,
2013-12-18 12:36:00,70.9,53.9,30.10,West,270,7.4,10.3,55,0.00,,,0.00,WUHU216HW,2013-12-18 09:36:00,
2013-12-18 12:41:00,70.9,53.9,30.10,WNW,293,4.7,10.3,55,0.00,,,0.00,WUHU216HW,2013-12-18 09:41:00,
2013-12-18 12:46:00,71.1,54.1,30.10,WNW,293,4.9,9.8,55,0.00,,,0.00,WUHU216HW,2013-12-18 09:46:00,
2013-12-18 12:51:00,71.5,53.9,30.10,NNW,338,3.6,8.1,54,0.00,,,0.00,WUHU216HW,2013-12-18 09:51:00,
2013-12-18 12:57:00,71.5,54.4,30.09,NW,315,3.6,8.3,55,0.00,,,0.00,WUHU216HW,2013-12-18 09:57:00,
2013-12-18 13:02:00,71.5,54.4,30.09,WNW,293,5.6,10.5,55,0.00,,,0.00,WUHU216HW,2013-12-18 10:02:00,
2013-12-18 13:07:00,71.6,54.0,30.09,NW,315,6.5,10.5,54,0.00,,,0.00,WUHU216HW,2013-12-18 10:07:00,
2013-12-18 13:12:00,71.8,54.2,30.09,NNW,338,4.7,9.8,54,0.00,,,0.00,WUHU216HW,2013-12-18 10:12:00,
2013-12-18 13:17:00,71.8,53.7,30.09,NW,315,6.3,10.1,53,0.00,,,0.00,WUHU216HW,2013-12-18 10:17:00,
2013-12-18 13:22:00,72.2,54.0,30.08,NNW,338,5.1,10.1,53,0.00,,,0.00,WUHU216HW,2013-12-18 10:22:00,
2013-12-18 13:27:00,72.4,54.2,30.08,North,0,11.2,11.2,53,0.00,,,0.00,WUHU216HW,2013-12-18 10:27:00,
2013-12-18 13:32:00,72.5,54.4,30.08,NNW,338,5.6,11.2,53,0.00,,,0.00,WUHU216HW,2013-12-18 10:32:00,
2013-12-18 13:37:00,72.9,54.2,30.08,NNW,338,3.6,11.2,52,0.00,,,0.00,WUHU216HW,2013-12-18 10:37:00,
2013-12-18 13:42:00,73.1,54.4,30.08,NW,315,5.1,10.3,52,0.00,,,0.00,WUHU216HW,2013-12-18 10:42:00,
2013-12-18 13:47:00,72.7,54.0,30.08,WNW,293,4.5,6.9,52,0.00,,,0.00,WUHU216HW,2013-12-18 10:47:00,
2013-12-18 13:52:00,72.7,54.0,30.08,North,0,8.3,8.3,52,0.00,,,0.00,WUHU216HW,2013-12-18 10:52:00,
2013-12-18 13:57:00,72.9,54.2,30.08,NW,315,4.5,10.5,52,0.00,,,0.00,WUHU216HW,2013-12-18 10:57:00,
2013-12-18 14:02:00,73.1,54.4,30.07,North,0,9.8,10.5,52,0.00,,,0.00,WUHU216HW,2013-12-18 11:02:00,
2013-12-18 14:07:00,73.3,54.5,30.07,NNW,338,4.5,10.5,52,0.00,,,0.00,WUHU216HW,2013-12-18 11:07:00,
2013-12-18 14:12:00,73.3,54.5,30.07,NE,45,7.2,10.5,52,0.00,,,0.00,WUHU216HW,2013-12-18 11:12:00,
2013-12-18 14:14:00,73.1,54.4,30.07,NNE,23,5.6,10.5,52,0.00,,,0.00,WUHU216HW,2013-12-18 11:14:00,
2013-12-18 14:19:00,73.3,54.5,30.07,NE,45,6.9,11.0,52,0.00,,,0.00,WUHU216HW,2013-12-18 11:19:00,
2013-12-18 14:24:00,73.1,54.4,30.07,North,0,6.0,11.0,52,0.00,,,0.00,WUHU216HW,2013-12-18 11:24:00,
2013-12-18 14:29:00,73.3,55.5,30.07,NNE,23,5.8,9.8,54,0.00,,,0.00,WUHU216HW,2013-12-18 11:29:00,
2013-12-18 14:34:00,73.1,55.8,30.08,NNW,338,5.4,9.8,55,0.00,,,0.00,WUHU216HW,2013-12-18 11:34:00,
2013-12-18 14:39:00,73.1,55.4,30.07,North,0,4.0,9.8,54,0.00,,,0.00,WUHU216HW,2013-12-18 11:39:00,
2013-12-18 14:44:00,73.1,54.4,30.07,NW,315,6.3,9.8,52,0.00,,,0.00,WUHU216HW,2013-12-18 11:44:00,
2013-12-18 14:49:00,73.1,55.4,30.07,NNW,338,6.9,11.9,54,0.00,,,0.00,WUHU216HW,2013-12-18 11:49:00,
2013-12-18 14:54:00,73.1,55.8,30.08,NNE,23,6.0,11.9,55,0.00,,,0.00,WUHU216HW,2013-12-18 11:54:00,
2013-12-18 14:59:00,73.1,55.8,30.07,NNE,23,6.3,9.8,55,0.00,,,0.00,WUHU216HW,2013-12-18 11:59:00,
2013-12-18 15:04:00,73.3,56.0,30.08,North,0,3.8,9.8,55,0.00,,,0.00,WUHU216HW,2013-12-18 12:04:00,
2013-12-18 15:09:00,73.1,56.3,30.08,NNE,23,7.2,9.4,56,0.00,,,0.00,WUHU216HW,2013-12-18 12:09:00,
2013-12-18 15:14:00,73.1,56.3,30.08,NNE,23,3.4,8.9,56,0.00,,,0.00,WUHU216HW,2013-12-18 12:14:00,
2013-12-18 15:19:00,72.9,56.2,30.08,North,0,9.4,11.0,56,0.00,,,0.00,WUHU216HW,2013-12-18 12:19:00,
2013-12-18 15:24:00,72.7,56.5,30.08,NNE,23,4.5,11.0,57,0.00,,,0.00,WUHU216HW,2013-12-18 12:24:00,
2013-12-18 15:29:00,72.5,56.9,30.08,North,0,3.8,10.7,58,0.00,,,0.00,WUHU216HW,2013-12-18 12:29:00,
2013-12-18 15:34:00,72.5,56.9,30.08,NE,45,5.4,10.7,58,0.00,,,0.00,WUHU216HW,2013-12-18 12:34:00,
2013-12-18 15:39:00,72.4,55.7,30.08,WNW,293,5.8,10.5,56,0.00,,,0.00,WUHU216HW,2013-12-18 12:39:00,
2013-12-18 15:44:00,72.2,55.5,30.08,North,0,5.8,9.2,56,0.00,,,0.00,WUHU216HW,2013-12-18 12:44:00,
2013-12-18 15:49:00,72.2,55.5,30.08,North,0,4.5,9.2,56,0.00,,,0.00,WUHU216HW,2013-12-18 12:49:00,
2013-12-18 15:54:00,72.2,56.5,30.08,North,0,2.5,10.5,58,0.00,,,0.00,WUHU216HW,2013-12-18 12:54:00,
2013-12-18 15:59:00,72.0,55.9,30.08,NNE,23,5.8,10.5,57,0.00,,,0.00,WUHU216HW,2013-12-18 12:59:00,
2013-12-18 16:04:00,71.8,55.2,30.08,NNW,338,3.8,6.9,56,0.00,,,0.00,WUHU216HW,2013-12-18 13:04:00,
2013-12-18 16:09:00,71.6,54.5,30.08,North,0,6.9,10.7,55,0.00,,,0.00,WUHU216HW,2013-12-18 13:09:00,
2013-12-18 16:14:00,71.6,55.1,30.08,NNW,338,4.0,10.7,56,0.00,,,0.00,WUHU216HW,2013-12-18 13:14:00,
2013-12-18 16:19:00,71.3,54.2,30.08,NNE,23,7.8,7.8,55,0.00,,,0.00,WUHU216HW,2013-12-18 13:19:00,
2013-12-18 16:24:00,71.3,54.7,30.08,NNE,23,5.4,7.8,56,0.00,,,0.00,WUHU216HW,2013-12-18 13:24:00,
2013-12-18 16:29:00,71.3,54.7,30.08,NNW,338,4.5,8.5,56,0.00,,,0.00,WUHU216HW,2013-12-18 13:29:00,
2013-12-18 16:34:00,70.9,54.4,30.08,NNW,338,7.8,8.7,56,0.00,,,0.00,WUHU216HW,2013-12-18 13:34:00,
2013-12-18 16:39:00,70.6,54.5,30.08,NNW,338,6.3,11.6,57,0.00,,,0.00,WUHU216HW,2013-12-18 13:39:00,
2013-12-18 16:44:00,70.4,54.5,30.08,NW,315,10.1,11.6,57,0.00,,,0.00,WUHU216HW,2013-12-18 13:44:00,
2013-12-18 16:49:00,70.2,54.3,30.08,NW,315,9.8,10.5,57,0.00,,,0.00,WUHU216HW,2013-12-18 13:49:00,
2013-12-18 16:54:00,70.0,54.6,30.09,WNW,293,8.3,11.2,58,0.00,,,0.00,WUHU216HW,2013-12-18 13:54:00,
2013-12-18 16:59:00,69.8,54.5,30.09,NNW,338,3.1,11.2,58,0.00,,,0.00,WUHU216HW,2013-12-18 13:59:00,
2013-12-18 17:04:00,69.8,54.5,30.09,NW,315,4.0,10.3,58,0.00,,,0.00,WUHU216HW,2013-12-18 14:04:00,
2013-12-18 17:09:00,69.8,54.9,30.09,North,0,3.8,6.7,59,0.00,,,0.00,WUHU216HW,2013-12-18 14:09:00,
2013-12-18 17:14:00,69.7,54.7,30.09,NE,45,5.8,6.9,59,0.00,,,0.00,WUHU216HW,2013-12-18 14:14:00,
2013-12-18 17:19:00,69.5,55.1,30.09,NNW,338,4.0,6.9,60,0.00,,,0.00,WUHU216HW,2013-12-18 14:19:00,
2013-12-18 17:24:00,69.3,54.9,30.09,NNW,338,6.7,8.7,60,0.00,,,0.00,WUHU216HW,2013-12-18 14:24:00,
2013-12-18 17:29:00,69.1,54.7,30.09,NW,315,7.6,8.9,60,0.00,,,0.00,WUHU216HW,2013-12-18 14:29:00,
2013-12-18 17:34:00,69.1,55.2,30.09,North,0,6.9,8.9,61,0.00,,,0.00,WUHU216HW,2013-12-18 14:34:00,
2013-12-18 17:39:00,68.9,55.0,30.10,West,270,4.0,8.5,61,0.00,,,0.00,WUHU216HW,2013-12-18 14:39:00,
2013-12-18 17:44:00,68.8,55.2,30.10,NW,315,4.7,8.5,62,0.00,,,0.00,WUHU216HW,2013-12-18 14:44:00,
2013-12-18 17:49:00,68.8,55.2,30.10,NNW,338,3.4,6.7,62,0.00,,,0.00,WUHU216HW,2013-12-18 14:49:00,
2013-12-18 17:54:00,68.4,54.9,30.11,NW,315,6.9,8.3,62,0.00,,,0.00,WUHU216HW,2013-12-18 14:54:00,
2013-12-18 17:59:00,68.4,55.3,30.11,NNW,338,6.9,9.4,63,0.00,,,0.00,WUHU216HW,2013-12-18 14:59:00,
2013-12-18 18:04:00,68.2,55.1,30.11,NNW,338,4.7,9.4,63,0.00,,,0.00,WUHU216HW,2013-12-18 15:04:00,
2013-12-18 18:09:00,68.2,55.1,30.11,North,0,4.0,6.9,63,0.00,,,0.00,WUHU216HW,2013-12-18 15:09:00,
2013-12-18 18:14:00,68.0,54.9,30.11,NNE,23,3.4,6.7,63,0.00,,,0.00,WUHU216HW,2013-12-18 15:14:00,
2013-12-18 18:19:00,68.0,54.9,30.11,NNW,338,2.2,7.2,63,0.00,,,0.00,WUHU216HW,2013-12-18 15:19:00,
2013-12-18 18:24:00,68.0,55.4,30.11,NW,315,4.0,7.2,64,0.00,,,0.00,WUHU216HW,2013-12-18 15:24:00,
2013-12-18 18:29:00,67.7,55.0,30.11,WNW,293,4.0,7.4,64,0.00,,,0.00,WUHU216HW,2013-12-18 15:29:00,
2013-12-18 18:34:00,67.7,55.0,30.12,NW,315,3.8,7.4,64,0.00,,,0.00,WUHU216HW,2013-12-18 15:34:00,
2013-12-18 18:39:00,67.5,55.3,30.12,WNW,293,5.1,6.7,65,0.00,,,0.00,WUHU216HW,2013-12-18 15:39:00,
2013-12-18 18:44:00,67.3,55.1,30.12,NNW,338,5.1,7.2,65,0.00,,,0.00,WUHU216HW,2013-12-18 15:44:00,
2013-12-18 18:49:00,67.1,54.9,30.12,NW,315,7.6,9.2,65,0.00,,,0.00,WUHU216HW,2013-12-18 15:49:00,
2013-12-18 18:54:00,67.0,55.2,30.12,NW,315,7.2,9.2,66,0.00,,,0.00,WUHU216HW,2013-12-18 15:54:00,
2013-12-18 18:59:00,67.0,55.2,30.12,NW,315,8.7,9.2,66,0.00,,,0.00,WUHU216HW,2013-12-18 15:59:00,
2013-12-18 19:04:00,66.8,55.0,30.12,NNW,338,7.2,8.9,66,0.00,,,0.00,WUHU216HW,2013-12-18 16:04:00,
2013-12-18 19:09:00,66.6,54.8,30.12,NW,315,5.4,8.5,66,0.00,,,0.00,WUHU216HW,2013-12-18 16:09:00,
2013-12-18 19:14:00,66.6,54.8,30.12,North,0,6.9,8.5,66,0.00,,,0.00,WUHU216HW,2013-12-18 16:14:00,
2013-12-18 19:19:00,66.6,55.3,30.12,NW,315,6.9,7.6,67,0.00,,,0.00,WUHU216HW,2013-12-18 16:19:00,
2013-12-18 19:24:00,66.4,55.1,30.12,NW,315,5.8,7.6,67,0.00,,,0.00,WUHU216HW,2013-12-18 16:24:00,
2013-12-18 19:29:00,66.4,55.1,30.12,WNW,293,9.8,9.8,67,0.00,,,0.00,WUHU216HW,2013-12-18 16:29:00,
2013-12-18 19:34:00,66.2,54.9,30.13,NW,315,4.9,9.8,67,0.00,,,0.00,WUHU216HW,2013-12-18 16:34:00,
2013-12-18 19:39:00,66.2,54.9,30.12,NW,315,4.9,9.8,67,0.00,,,0.00,WUHU216HW,2013-12-18 16:39:00,
2013-12-18 19:44:00,66.2,54.9,30.13,NW,315,6.3,6.9,67,0.00,,,0.00,WUHU216HW,2013-12-18 16:44:00,
2013-12-18 19:49:00,66.1,55.2,30.13,WNW,293,4.9,6.9,68,0.00,,,0.00,WUHU216HW,2013-12-18 16:49:00,
2013-12-18 19:54:00,65.9,55.0,30.13,NNW,338,5.4,6.7,68,0.00,,,0.00,WUHU216HW,2013-12-18 16:54:00,
2013-12-18 19:59:00,65.9,55.0,30.13,NW,315,5.8,7.4,68,0.00,,,0.00,WUHU216HW,2013-12-18 16:59:00,
2013-12-18 20:05:00,65.9,55.0,30.13,NW,315,5.1,7.6,68,0.00,,,0.00,WUHU216HW,2013-12-18 17:05:00,
2013-12-18 20:10:00,65.7,54.8,30.13,WNW,293,4.7,7.6,68,0.00,,,0.00,WUHU216HW,2013-12-18 17:10:00,
2013-12-18 20:14:00,65.7,54.8,30.12,NW,315,6.3,6.3,68,0.00,,,0.00,WUHU216HW,2013-12-18 17:14:00,
2013-12-18 20:20:00,65.7,54.8,30.13,WNW,293,4.5,6.3,68,0.00,,,0.00,WUHU216HW,2013-12-18 17:20:00,
2013-12-18 20:25:00,65.5,54.6,30.13,NNW,338,6.3,6.3,68,0.00,,,0.00,WUHU216HW,2013-12-18 17:25:00,
2013-12-18 20:30:00,65.5,54.6,30.12,WNW,293,2.7,6.3,68,0.00,,,0.00,WUHU216HW,2013-12-18 17:30:00,
2013-12-18 20:35:00,65.5,54.6,30.12,NNW,338,3.8,6.3,68,0.00,,,0.00,WUHU216HW,2013-12-18 17:35:00,
2013-12-18 20:40:00,65.3,54.9,30.13,NW,315,4.3,5.4,69,0.00,,,0.00,WUHU216HW,2013-12-18 17:40:00,
2013-12-18 20:45:00,65.3,54.9,30.13,NW,315,5.1,6.0,69,0.00,,,0.00,WUHU216HW,2013-12-18 17:45:00,
2013-12-18 20:50:00,65.3,54.9,30.13,NW,315,6.3,6.3,69,0.00,,,0.00,WUHU216HW,2013-12-18 17:50:00,
2013-12-18 20:55:00,65.3,54.6,30.13,WNW,293,4.9,6.3,68,0.00,,,0.00,WUHU216HW,2013-12-18 17:55:00,
2013-12-18 21:00:00,65.3,54.6,30.13,NW,315,4.5,5.6,68,0.00,,,0.00,WUHU216HW,2013-12-18 18:00:00,
2013-12-18 21:05:00,65.2,54.7,30.13,WNW,293,4.7,5.4,69,0.00,,,0.00,WUHU216HW,2013-12-18 18:05:00,
2013-12-18 21:10:00,65.2,54.7,30.13,NW,315,3.1,7.6,69,0.00,,,0.00,WUHU216HW,2013-12-18 18:10:00,
2013-12-18 21:15:00,65.2,54.7,30.13,NW,315,5.4,7.6,69,0.00,,,0.00,WUHU216HW,2013-12-18 18:15:00,
2013-12-18 21:20:00,65.2,54.7,30.13,WNW,293,4.0,7.8,69,0.00,,,0.00,WUHU216HW,2013-12-18 18:20:00,
2013-12-18 21:25:00,65.2,54.7,30.13,WNW,293,4.9,7.8,69,0.00,,,0.00,WUHU216HW,2013-12-18 18:25:00,
2013-12-18 21:30:00,65.2,54.7,30.13,WNW,293,4.9,7.2,69,0.00,,,0.00,WUHU216HW,2013-12-18 18:30:00,
2013-12-18 21:35:00,65.2,54.7,30.13,NNW,338,4.0,7.2,69,0.00,,,0.00,WUHU216HW,2013-12-18 18:35:00,
2013-12-18 21:40:00,65.0,54.6,30.13,WNW,293,3.1,6.7,69,0.00,,,0.00,WUHU216HW,2013-12-18 18:40:00,
2013-12-18 21:45:00,65.0,54.6,30.13,NW,315,5.4,6.9,69,0.00,,,0.00,WUHU216HW,2013-12-18 18:45:00,
2013-12-18 21:50:00,64.8,54.5,30.13,NNE,23,4.5,6.9,69,0.00,,,0.00,WUHU216HW,2013-12-18 18:50:00,
2013-12-18 21:55:00,64.8,54.5,30.12,WNW,293,4.0,6.5,69,0.00,,,0.00,WUHU216HW,2013-12-18 18:55:00,
2013-12-18 22:00:00,64.6,54.3,30.12,WNW,293,4.7,6.5,69,0.00,,,0.00,WUHU216HW,2013-12-18 19:00:00,
2013-12-18 22:05:00,64.4,54.5,30.12,West,270,2.9,6.3,70,0.00,,,0.00,WUHU216HW,2013-12-18 19:05:00,
2013-12-18 22:10:00,64.3,54.4,30.12,NNW,338,3.1,6.3,70,0.00,,,0.00,WUHU216HW,2013-12-18 19:10:00,
2013-12-18 22:15:00,64.3,54.4,30.12,WNW,293,4.7,4.7,70,0.00,,,0.00,WUHU216HW,2013-12-18 19:15:00,
2013-12-18 22:20:00,64.3,54.4,30.12,NW,315,4.0,5.1,70,0.00,,,0.00,WUHU216HW,2013-12-18 19:20:00,
2013-12-18 22:25:00,64.1,54.2,30.12,WNW,293,4.3,5.6,70,0.00,,,0.00,WUHU216HW,2013-12-18 19:25:00,
2013-12-18 22:30:00,64.1,54.5,30.12,WNW,293,2.9,5.6,71,0.00,,,0.00,WUHU216HW,2013-12-18 19:30:00,
2013-12-18 22:35:00,63.9,54.4,30.12,West,270,4.5,5.4,71,0.00,,,0.00,WUHU216HW,2013-12-18 19:35:00,
2013-12-18 22:40:00,63.7,54.5,30.12,WNW,293,2.9,5.6,72,0.00,,,0.00,WUHU216HW,2013-12-18 19:40:00,
2013-12-18 22:45:00,63.7,54.5,30.12,WNW,293,3.8,5.6,72,0.00,,,0.00,WUHU216HW,2013-12-18 19:45:00,
2013-12-18 22:50:00,63.7,54.5,30.12,West,270,4.0,5.4,72,0.00,,,0.00,WUHU216HW,2013-12-18 19:50:00,
2013-12-18 22:55:00,63.5,54.4,30.12,WNW,293,5.6,6.5,72,0.00,,,0.00,WUHU216HW,2013-12-18 19:55:00,
2013-12-18 23:00:00,63.5,54.4,30.12,WNW,293,4.0,6.5,72,0.00,,,0.00,WUHU216HW,2013-12-18 20:00:00,
2013-12-18 23:05:00,63.4,54.2,30.12,West,270,4.5,6.0,72,0.00,,,0.00,WUHU216HW,2013-12-18 20:05:00,
2013-12-18 23:10:00,63.4,54.5,30.12,West,270,5.4,6.9,73,0.00,,,0.00,WUHU216HW,2013-12-18 20:10:00,
2013-12-18 23:15:00,63.2,54.4,30.11,WNW,293,4.9,6.9,73,0.00,,,0.00,WUHU216HW,2013-12-18 20:15:00,
2013-12-18 23:20:00,63.2,54.4,30.12,NW,315,4.7,6.5,73,0.00,,,0.00,WUHU216HW,2013-12-18 20:20:00,
2013-12-18 23:25:00,63.2,54.4,30.12,West,270,3.8,5.8,73,0.00,,,0.00,WUHU216HW,2013-12-18 20:25:00,
2013-12-18 23:30:00,63.0,54.5,30.12,West,270,5.8,6.3,74,0.00,,,0.00,WUHU216HW,2013-12-18 20:30:00,
2013-12-18 23:35:00,63.0,54.5,30.11,WNW,293,5.6,6.3,74,0.00,,,0.00,WUHU216HW,2013-12-18 20:35:00,
2013-12-18 23:40:00,62.8,54.4,30.12,West,270,4.7,6.3,74,0.00,,,0.00,WUHU216HW,2013-12-18 20:40:00,
2013-12-18 23:45:00,62.6,53.8,30.12,West,270,4.7,6.3,73,0.00,,,0.00,WUHU216HW,2013-12-18 20:45:00,
2013-12-18 23:50:00,62.6,53.8,30.12,West,270,5.4,6.3,73,0.00,,,0.00,WUHU216HW,2013-12-18 20:50:00,
2013-12-18 23:55:00,62.5,53.6,30.12,West,270,5.4,6.3,73,0.00,,,0.00,WUHU216HW,2013-12-18 20:55:00,